Time;durP1;ratioP1;P1;durP2;ratioP2;P2;SDS_P1;SDS_P2;PMS_P1;PMS_P2;Temp;Humidity;BMP_temperature;BMP_pressure;BME280_temperature;BME280_humidity;BME280_pressure;Samples;Min_cycle;Max_cycle;Signal;HPM_P1;HPM_P2
2023/03/22 00:02:01;;;;;;;0.50;0.50;;;;;;;12.78;100.00;99033.66;5035153;28;20198;-66
2023/03/22 00:04:28;;;;;;;0.50;0.50;;;;;;;12.87;100.00;99056.38;5032749;28;20292;-66
2023/03/22 00:06:55;;;;;;;0.50;0.50;;;;;;;12.75;100.00;99053.53;5032301;28;20212;-66
2023/03/22 00:09:22;;;;;;;0.60;0.60;;;;;;;12.66;100.00;99043.66;5032118;28;20218;-66
2023/03/22 00:11:49;;;;;;;0.53;0.53;;;;;;;12.66;100.00;99038.53;5033447;28;20628;-66
2023/03/22 00:14:18;;;;;;;0.40;0.40;;;;;;;12.71;100.00;99046.84;5052389;28;20656;-66
2023/03/22 00:16:47;;;;;;;0.70;0.70;;;;;;;12.73;100.00;99039.91;5052357;28;20212;-66
2023/03/22 00:19:15;;;;;;;1.40;1.37;;;;;;;12.77;100.00;99046.56;5052064;28;20288;-66
2023/03/22 00:21:42;;;;;;;0.53;0.53;;;;;;;12.79;100.00;99055.91;5038850;28;20669;-66
2023/03/22 00:24:09;;;;;;;0.53;0.53;;;;;;;12.80;100.00;99041.28;5031972;28;20673;-66
2023/03/22 00:26:35;;;;;;;1.10;1.10;;;;;;;12.82;100.00;99044.66;5032093;28;20666;-66
2023/03/22 00:29:02;;;;;;;0.63;0.63;;;;;;;12.82;100.00;99039.50;5032265;28;20217;-66
2023/03/22 00:31:31;;;;;;;0.50;0.50;;;;;;;12.87;100.00;99046.09;5031794;28;20685;-66
2023/03/22 00:33:58;;;;;;;0.50;0.50;;;;;;;12.86;100.00;99047.00;5035957;28;20224;-66
2023/03/22 00:36:24;;;;;;;1.17;1.07;;;;;;;12.73;100.00;99045.06;5051830;28;20683;-66
2023/03/22 00:38:52;;;;;;;0.70;0.70;;;;;;;12.71;100.00;99046.84;5051975;28;20692;-66
2023/03/22 00:41:20;;;;;;;0.70;0.70;;;;;;;12.56;100.00;99018.34;5042023;28;20207;-66
2023/03/22 00:43:48;;;;;;;0.50;0.50;;;;;;;12.72;100.00;99040.81;5032418;28;20203;-66
2023/03/22 00:46:17;;;;;;;0.80;0.80;;;;;;;12.72;100.00;99043.38;5031313;28;20193;-66
2023/03/22 00:48:45;;;;;;;0.90;0.87;;;;;;;12.75;100.00;99027.81;5031750;28;20283;-66
2023/03/22 00:51:12;;;;;;;1.00;1.00;;;;;;;12.77;100.00;99031.16;5031568;28;20247;-66
2023/03/22 00:53:40;;;;;;;0.90;0.90;;;;;;;12.78;100.00;99027.69;5032710;28;20208;-66
2023/03/22 00:56:08;;;;;;;0.60;0.60;;;;;;;12.76;100.00;99029.50;5034951;28;20646;-66
2023/03/22 00:58:36;;;;;;;0.50;0.50;;;;;;;12.75;100.00;99032.97;5031634;28;20201;-66
2023/03/22 01:01:02;;;;;;;0.60;0.60;;;;;;;12.78;100.00;99031.09;5031457;28;20612;-66
2023/03/22 01:03:29;;;;;;;0.60;0.60;;;;;;;12.75;100.00;99033.81;5031790;28;20194;-66
2023/03/22 01:05:58;;;;;;;0.63;0.63;;;;;;;12.73;100.00;99030.44;5031444;28;20715;-66
2023/03/22 01:08:32;;;;;;;0.70;0.70;;;;;;;12.75;100.00;99032.97;5031246;28;20588;-66
2023/03/22 01:10:59;;;;;;;0.50;0.50;;;;;;;12.73;100.00;99024.50;5031399;28;20677;-66
2023/03/22 01:13:26;;;;;;;1.20;1.20;;;;;;;12.72;100.00;99028.78;5031294;28;20259;-66
2023/03/22 01:15:53;;;;;;;0.70;0.70;;;;;;;12.75;100.00;99022.66;5030753;28;20204;-66
2023/03/22 01:18:20;;;;;;;0.70;0.70;;;;;;;12.75;100.00;99022.66;5040497;28;20220;-66
2023/03/22 01:20:47;;;;;;;0.50;0.50;;;;;;;12.68;100.00;99031.56;5033043;28;20220;-66
2023/03/22 01:23:15;;;;;;;0.60;0.60;;;;;;;12.63;100.00;99030.03;5051492;28;20205;-66
2023/03/22 01:25:42;;;;;;;0.97;0.97;;;;;;;12.60;100.00;99024.19;5051101;28;20200;-66
2023/03/22 01:28:09;;;;;;;0.60;0.60;;;;;;;12.58;100.00;99016.53;5046715;28;20198;-66
2023/03/22 01:30:38;;;;;;;0.50;0.50;;;;;;;12.56;100.00;99017.53;5031248;28;20209;-66
2023/03/22 01:33:06;;;;;;;1.50;1.43;;;;;;;12.51;100.00;99024.59;5030811;28;20240;-66
2023/03/22 01:35:33;;;;;;;0.60;0.60;;;;;;;12.37;100.00;99025.22;5031109;28;20194;-66
2023/03/22 01:38:00;;;;;;;0.90;0.90;;;;;;;12.32;100.00;99024.56;5030005;28;20267;-66
2023/03/22 01:40:28;;;;;;;0.80;0.80;;;;;;;12.15;100.00;99031.34;5031610;28;20232;-66
2023/03/22 01:42:58;;;;;;;1.20;1.13;;;;;;;11.81;100.00;99025.03;5030908;28;20201;-66
2023/03/22 01:45:35;;;;;;;0.90;0.90;;;;;;;11.52;100.00;99031.31;5030888;28;20212;-65
2023/03/22 01:48:07;;;;;;;0.90;0.90;;;;;;;11.23;100.00;99029.03;5030020;28;20228;-66
2023/03/22 01:50:36;;;;;;;0.50;0.50;;;;;;;11.11;100.00;99034.66;5031050;28;20217;-66
2023/03/22 01:53:04;;;;;;;0.40;0.40;;;;;;;10.98;100.00;99033.44;5030715;28;20197;-66
2023/03/22 01:55:33;;;;;;;1.13;1.13;;;;;;;10.84;100.00;99016.00;5030924;28;20685;-66
2023/03/22 01:58:01;;;;;;;0.67;0.67;;;;;;;10.77;100.00;99016.28;5029380;28;20240;-66
2023/03/22 02:00:28;;;;;;;1.13;1.13;;;;;;;10.63;100.00;99021.09;5030868;28;20566;-65
2023/03/22 02:02:55;;;;;;;0.60;0.60;;;;;;;10.75;100.00;99029.16;5030366;28;20202;-66
2023/03/22 02:05:22;;;;;;;0.50;0.50;;;;;;;10.65;100.00;99034.69;5030911;28;20581;-66
2023/03/22 02:07:50;;;;;;;0.67;0.67;;;;;;;10.59;100.00;99029.78;5030708;28;20212;-66
2023/03/22 02:10:19;;;;;;;0.90;0.90;;;;;;;10.43;100.00;99034.63;5029814;28;20224;-65
2023/03/22 02:13:20;;;;;;;0.50;0.50;;;;;;;10.39;100.00;99038.16;5030876;28;20201;-65
2023/03/22 02:15:54;;;;;;;1.37;1.37;;;;;;;10.37;100.00;99040.75;5014284;28;20565;-66
2023/03/22 02:18:37;;;;;;;0.70;0.70;;;;;;;10.39;100.00;99040.72;5028951;28;20197;-66
2023/03/22 02:21:46;;;;;;;0.50;0.50;;;;;;;10.38;100.00;99042.44;5030247;28;20197;-66
2023/03/22 02:24:48;;;;;;;1.10;1.10;;;;;;;10.35;100.00;99052.81;5030175;28;20197;-66
2023/03/22 02:27:45;;;;;;;0.40;0.40;;;;;;;10.18;100.00;99049.97;5030142;28;20220;-65
2023/03/22 02:30:43;;;;;;;0.50;0.50;;;;;;;10.14;100.00;99035.63;5029206;28;20692;-65
2023/03/22 02:33:29;;;;;;;0.50;0.50;;;;;;;10.17;100.00;99045.78;5030098;28;20224;-66
2023/03/22 02:36:21;;;;;;;0.60;0.60;;;;;;;10.13;100.00;99051.00;5030503;28;20200;-65
2023/03/22 02:39:12;;;;;;;0.73;0.73;;;;;;;10.09;100.00;99046.88;5027654;28;20209;-66
2023/03/22 02:42:06;;;;;;;0.60;0.60;;;;;;;10.15;100.00;99062.88;5025950;28;20581;-65
2023/03/22 02:44:40;;;;;;;0.80;0.80;;;;;;;10.17;100.00;99056.00;5030339;28;20570;-66
2023/03/22 02:47:15;;;;;;;0.70;0.70;;;;;;;10.17;100.00;99043.19;5030345;28;20200;-66
2023/03/22 02:49:50;;;;;;;0.57;0.57;;;;;;;10.32;100.00;99058.03;5029634;28;20217;-65
2023/03/22 02:52:24;;;;;;;0.53;0.53;;;;;;;10.30;100.00;99048.75;5022671;28;20228;-65
2023/03/22 02:55:00;;;;;;;0.40;0.40;;;;;;;10.42;100.00;99058.56;5030203;28;20201;-66
2023/03/22 02:57:33;;;;;;;0.90;0.90;;;;;;;10.37;100.00;99058.69;5033447;28;20247;-66
2023/03/22 03:00:06;;;;;;;0.50;0.50;;;;;;;10.48;100.00;99064.31;5034330;28;20193;-66
2023/03/22 03:02:35;;;;;;;0.40;0.40;;;;;;;10.56;100.00;99064.03;5028527;28;20566;-66
2023/03/22 03:05:03;;;;;;;0.50;0.50;;;;;;;10.54;100.00;99064.09;5033844;28;20197;-66
2023/03/22 03:07:31;;;;;;;0.67;0.67;;;;;;;10.57;100.00;99069.97;5033901;28;20205;-66
2023/03/22 03:10:00;;;;;;;0.40;0.40;;;;;;;10.67;100.00;99071.31;5032444;28;20221;-66
2023/03/22 03:12:29;;;;;;;0.80;0.80;;;;;;;10.59;100.00;99056.25;5028261;28;20197;-65
2023/03/22 03:14:56;;;;;;;1.33;1.23;;;;;;;10.67;100.00;99067.03;5034080;28;20209;-66
2023/03/22 03:17:37;;;;;;;0.57;0.57;;;;;;;10.71;100.00;99081.44;5033843;28;20205;-65
2023/03/22 03:20:23;;;;;;;0.40;0.40;;;;;;;10.70;100.00;99074.63;5033681;28;20546;-65
2023/03/22 03:23:02;;;;;;;0.50;0.50;;;;;;;10.67;100.00;99076.47;5029359;28;20225;-66
2023/03/22 03:25:42;;;;;;;0.50;0.50;;;;;;;10.69;100.00;99077.25;5033526;28;20205;-66
2023/03/22 03:28:15;;;;;;;0.50;0.50;;;;;;;10.66;100.00;99077.38;5031724;28;20204;-66
2023/03/22 03:30:48;;;;;;;0.40;0.40;;;;;;;10.59;100.00;99084.44;5033420;28;20275;-66
2023/03/22 03:33:17;;;;;;;0.63;0.63;;;;;;;10.63;100.00;99080.03;5040278;28;20311;-66
2023/03/22 03:35:50;;;;;;;0.60;0.60;;;;;;;10.62;100.00;99073.22;5053002;28;20211;-65
2023/03/22 03:38:21;;;;;;;0.50;0.50;;;;;;;10.61;100.00;99076.69;5053068;28;20560;-66
2023/03/22 03:40:54;;;;;;;0.50;0.50;;;;;;;10.67;100.00;99076.47;5034830;28;20204;-66
2023/03/22 03:43:22;;;;;;;0.60;0.60;;;;;;;10.70;100.00;99078.91;5044337;28;20197;-66
2023/03/22 03:45:50;;;;;;;0.60;0.60;;;;;;;10.64;100.00;99079.13;5050439;28;20197;-65
2023/03/22 03:48:21;;;;;;;0.60;0.60;;;;;;;10.69;100.00;99079.81;5040405;28;20259;-66
2023/03/22 03:50:52;;;;;;;0.80;0.80;;;;;;;10.70;100.00;99071.22;5034355;28;20607;-66
2023/03/22 03:53:19;;;;;;;0.50;0.50;;;;;;;10.77;100.00;99080.38;5053107;28;20200;-66
2023/03/22 03:55:46;;;;;;;0.70;0.70;;;;;;;10.83;100.00;99090.41;5046990;28;20272;-65
2023/03/22 03:58:15;;;;;;;1.13;0.90;;;;;;;10.87;100.00;99087.69;5035822;28;20196;-66
2023/03/22 04:00:42;;;;;;;0.70;0.70;;;;;;;10.89;100.00;99088.44;5032863;28;20193;-66
2023/03/22 04:03:09;;;;;;;0.73;0.73;;;;;;;10.99;100.00;99086.38;5032500;28;20201;-66
2023/03/22 04:05:36;;;;;;;0.80;0.80;;;;;;;11.03;100.00;99098.22;5032533;28;20550;-66
2023/03/22 04:08:04;;;;;;;0.50;0.50;;;;;;;10.93;100.00;99076.34;5032240;28;20263;-66
2023/03/22 04:10:31;;;;;;;0.83;0.83;;;;;;;11.03;100.00;99093.09;5030234;28;20244;-65
2023/03/22 04:12:58;;;;;;;0.40;0.40;;;;;;;11.07;100.00;99092.09;5031902;28;20205;-66
2023/03/22 04:15:26;;;;;;;0.40;0.40;;;;;;;11.09;100.00;99097.97;5032505;28;20201;-66
2023/03/22 04:17:53;;;;;;;0.50;0.50;;;;;;;11.14;100.00;99106.38;5049000;28;20197;-65
2023/03/22 04:20:20;;;;;;;0.50;0.50;;;;;;;11.07;100.00;99108.31;5052307;28;20193;-65
2023/03/22 04:22:48;;;;;;;0.40;0.40;;;;;;;11.03;100.00;99113.59;5041584;28;20205;-65
2023/03/22 04:25:17;;;;;;;0.50;0.50;;;;;;;10.95;100.00;99116.44;5051977;28;20268;-66
2023/03/22 04:27:46;;;;;;;0.67;0.67;;;;;;;10.80;100.00;99096.47;5032078;28;20589;-65
2023/03/22 04:30:17;;;;;;;0.50;0.50;;;;;;;10.87;100.00;99105.63;5047506;28;20220;-65
2023/03/22 04:32:46;;;;;;;0.60;0.60;;;;;;;10.96;100.00;99123.25;5031806;28;20229;-65
2023/03/22 04:35:13;;;;;;;0.50;0.50;;;;;;;10.93;100.00;99123.34;5031525;28;20198;-66
2023/03/22 04:37:40;;;;;;;0.60;0.60;;;;;;;10.94;100.00;99113.94;5029940;28;20201;-66
2023/03/22 04:40:08;;;;;;;0.67;0.67;;;;;;;10.94;100.00;99113.94;5031891;28;20198;-66
2023/03/22 04:42:35;;;;;;;0.50;0.50;;;;;;;10.87;100.00;99122.75;5031954;28;20281;-66
2023/03/22 04:45:03;;;;;;;0.60;0.60;;;;;;;10.89;100.00;99123.50;5021863;28;20677;-66
2023/03/22 04:47:30;;;;;;;0.40;0.40;;;;;;;10.79;100.00;99120.44;5018989;28;20205;-66
2023/03/22 04:49:58;;;;;;;0.60;0.60;;;;;;;10.73;100.00;99119.81;5007536;28;20262;-65
2023/03/22 04:52:25;;;;;;;0.50;0.50;;;;;;;10.73;100.00;99122.38;5014514;28;20198;-66
2023/03/22 04:54:52;;;;;;;0.53;0.53;;;;;;;10.77;100.00;99121.38;5017696;28;20221;-65
2023/03/22 04:57:18;;;;;;;0.50;0.50;;;;;;;10.71;100.00;99126.75;5012492;28;20202;-65
2023/03/22 04:59:45;;;;;;;0.50;0.50;;;;;;;10.81;100.00;99128.09;5020215;28;20198;-64
2023/03/22 05:02:12;;;;;;;0.67;0.67;;;;;;;10.87;100.00;99136.41;5027139;28;20268;-65
2023/03/22 05:04:39;;;;;;;0.70;0.70;;;;;;;10.84;100.00;99123.69;5030649;28;20562;-64
2023/03/22 05:07:07;;;;;;;1.00;1.00;;;;;;;10.92;100.00;99136.25;5026764;28;20205;-65
2023/03/22 05:09:34;;;;;;;0.80;0.80;;;;;;;10.92;100.00;99141.38;5029469;28;20224;-65
2023/03/22 05:12:01;;;;;;;0.70;0.70;;;;;;;10.95;100.00;99146.41;5029478;28;20221;-64
2023/03/22 05:14:27;;;;;;;0.77;0.77;;;;;;;10.97;100.00;99154.88;5031101;28;20197;-65
2023/03/22 05:16:54;;;;;;;0.40;0.40;;;;;;;11.01;100.00;99146.19;5022523;28;20236;-65
2023/03/22 05:19:23;;;;;;;0.50;0.50;;;;;;;11.07;100.00;99153.66;5029012;28;20271;-65
2023/03/22 05:21:56;;;;;;;0.50;0.50;;;;;;;11.08;100.00;99148.44;5029865;28;20660;-65
2023/03/22 05:24:24;;;;;;;0.87;0.87;;;;;;;11.12;100.00;99153.47;5027040;28;20641;-66
2023/03/22 05:26:52;;;;;;;0.67;0.67;;;;;;;11.14;100.00;99152.53;5026037;28;20644;-65
2023/03/22 05:29:20;;;;;;;0.50;0.50;;;;;;;11.14;100.00;99152.53;5030618;28;20205;-65
2023/03/22 05:31:47;;;;;;;0.60;0.60;;;;;;;11.08;100.00;99151.00;5030977;28;20232;-65
2023/03/22 05:34:13;;;;;;;0.47;0.47;;;;;;;11.07;100.00;99145.94;5050940;28;20246;-65
2023/03/22 05:36:40;;;;;;;0.80;0.80;;;;;;;11.13;100.00;99161.13;5035005;28;20696;-66
2023/03/22 05:39:07;;;;;;;0.40;0.40;;;;;;;11.19;100.00;99176.28;5025967;28;20208;-65
2023/03/22 05:41:36;;;;;;;0.43;0.43;;;;;;;11.12;100.00;99179.97;5028221;28;20237;-65
2023/03/22 05:44:02;;;;;;;0.50;0.50;;;;;;;11.13;100.00;99180.81;5030613;28;20205;-65
2023/03/22 05:46:29;;;;;;;0.90;0.90;;;;;;;11.12;100.00;99172.25;5031053;28;20256;-65
2023/03/22 05:48:56;;;;;;;0.50;0.50;;;;;;;11.18;100.00;99174.59;5031355;28;20262;-65
2023/03/22 05:51:24;;;;;;;0.60;0.60;;;;;;;11.10;100.00;99156.09;5030921;28;20224;-65
2023/03/22 05:53:52;;;;;;;0.40;0.40;;;;;;;11.27;100.00;99183.72;5030732;28;20201;-65
2023/03/22 05:56:22;;;;;;;1.13;1.13;;;;;;;11.32;100.00;99192.91;5030375;28;20760;-65
2023/03/22 05:58:51;;;;;;;0.60;0.60;;;;;;;11.34;100.00;99196.25;5019629;28;20247;-65
2023/03/22 06:01:19;;;;;;;0.60;0.60;;;;;;;11.38;100.00;99202.94;5028067;28;20202;-65
2023/03/22 06:03:47;;;;;;;0.40;0.40;;;;;;;11.34;100.00;99191.13;5034196;28;20233;-65
2023/03/22 06:06:14;;;;;;;0.50;0.50;;;;;;;11.46;100.00;99195.81;5029434;28;20205;-65
2023/03/22 06:08:41;;;;;;;0.70;0.70;;;;;;;11.47;100.00;99202.59;5038433;28;20198;-65
2023/03/22 06:11:09;;;;;;;0.77;0.77;;;;;;;11.51;100.00;99206.75;5032679;28;20216;-65
2023/03/22 06:13:36;;;;;;;0.60;0.60;;;;;;;11.54;100.00;99211.75;5038586;28;20208;-65
2023/03/22 06:16:05;;;;;;;0.60;0.60;;;;;;;11.60;100.00;99206.41;5029645;28;20198;-65
2023/03/22 06:18:32;;;;;;;0.87;0.87;;;;;;;11.59;100.00;99217.59;5032413;28;20206;-65
2023/03/22 06:20:59;;;;;;;0.60;0.60;;;;;;;11.60;100.00;99219.22;5028750;28;20201;-66
2023/03/22 06:23:26;;;;;;;0.40;0.40;;;;;;;11.56;100.00;99217.69;5034352;28;20285;-65
2023/03/22 06:25:52;;;;;;;0.47;0.47;;;;;;;11.55;100.00;99216.00;5029267;28;20982;-66
2023/03/22 06:28:19;;;;;;;0.50;0.50;;;;;;;11.55;100.00;99220.31;5027798;28;20209;-66
2023/03/22 06:30:46;;;;;;;0.47;0.47;;;;;;;11.54;100.00;99224.59;5041028;28;20225;-70
2023/03/22 06:33:14;;;;;;;0.60;0.60;;;;;;;11.53;100.00;99235.75;5028525;28;20225;-66
2023/03/22 06:35:41;;;;;;;0.50;0.50;;;;;;;11.45;100.00;99227.50;5028140;28;20205;-66
2023/03/22 06:38:08;;;;;;;0.50;0.50;;;;;;;11.48;100.00;99245.38;5028498;28;20204;-67
2023/03/22 06:40:35;;;;;;;0.50;0.50;;;;;;;11.44;100.00;99248.09;5029036;28;20202;-67
2023/03/22 06:43:02;;;;;;;0.50;0.50;;;;;;;11.50;100.00;99261.53;5036720;28;20209;-67
2023/03/22 06:45:32;;;;;;;0.50;0.50;;;;;;;11.37;100.00;99239.75;5037386;28;20589;-67
2023/03/22 06:47:59;;;;;;;0.47;0.47;;;;;;;11.47;100.00;99259.06;5028705;28;20236;-68
2023/03/22 06:50:27;;;;;;;0.87;0.87;;;;;;;11.55;100.00;99262.22;5038807;28;20617;-66
2023/03/22 06:52:54;;;;;;;0.50;0.50;;;;;;;11.60;100.00;99270.59;5034220;28;20636;-67
2023/03/22 06:55:21;;;;;;;0.50;0.50;;;;;;;11.65;100.00;99262.72;5039698;28;20220;-67
2023/03/22 06:57:48;;;;;;;0.40;0.40;;;;;;;11.60;100.00;99262.03;5034405;28;20214;-65
2023/03/22 07:00:16;;;;;;;0.70;0.70;;;;;;;11.59;100.00;99261.22;5024798;28;20697;-65
2023/03/22 07:02:42;;;;;;;0.47;0.47;;;;;;;11.62;100.00;99256.88;5030613;28;20208;-67
2023/03/22 07:05:09;;;;;;;0.53;0.53;;;;;;;11.66;100.00;99253.28;5044869;28;20201;-67
2023/03/22 07:07:38;;;;;;;1.03;0.80;;;;;;;11.64;100.00;99244.78;5036239;28;20205;-66
2023/03/22 07:10:07;;;;;;;0.40;0.40;;;;;;;11.60;100.00;99250.03;5030808;28;20267;-67
2023/03/22 07:12:35;;;;;;;0.60;0.60;;;;;;;11.52;100.00;99239.22;5036775;28;20213;-66
2023/03/22 07:15:01;;;;;;;0.50;0.50;;;;;;;11.53;100.00;99240.06;5036196;28;20196;-66
2023/03/22 07:17:28;;;;;;;0.40;0.40;;;;;;;11.56;100.00;99227.97;5028490;28;20756;-67
2023/03/22 07:19:55;;;;;;;0.50;0.50;;;;;;;11.44;100.00;99228.38;5031215;28;20209;-66
2023/03/22 07:22:23;;;;;;;0.77;0.77;;;;;;;11.39;100.00;99220.03;5039170;28;20660;-66
2023/03/22 07:24:51;;;;;;;0.60;0.60;;;;;;;11.33;100.00;99219.41;5037599;28;20210;-67
2023/03/22 07:27:18;;;;;;;0.70;0.70;;;;;;;11.20;100.00;99208.75;5033735;28;20259;-66
2023/03/22 07:29:45;;;;;;;0.60;0.60;;;;;;;11.16;100.00;99196.09;5039677;28;20205;-66
2023/03/22 07:32:12;;;;;;;0.37;0.37;;;;;;;11.12;100.00;99220.16;5032495;28;20236;-67
2023/03/22 07:34:39;;;;;;;0.50;0.50;;;;;;;11.13;100.00;99238.09;5036638;28;20201;-67
2023/03/22 07:37:07;;;;;;;0.60;0.60;;;;;;;11.14;100.00;99256.88;5035790;28;20251;-67
2023/03/22 07:39:34;;;;;;;0.63;0.63;;;;;;;11.11;100.00;99244.16;5028884;28;20232;-67
2023/03/22 07:42:03;;;;;;;0.40;0.40;;;;;;;11.35;100.00;99268.94;5034377;28;20205;-68
2023/03/22 07:44:30;;;;;;;0.90;0.90;;;;;;;11.36;100.00;99234.69;5027005;28;20202;-67
2023/03/22 07:46:56;;;;;;;0.70;0.70;;;;;;;11.60;100.00;99260.31;5043835;28;20244;-67
2023/03/22 07:49:23;;;;;;;0.60;0.60;;;;;;;11.71;100.00;99262.53;5029409;28;20224;-67
2023/03/22 07:51:50;;;;;;;0.60;0.60;;;;;;;11.76;100.00;99260.59;5032157;28;20217;-67
2023/03/22 07:54:17;;;;;;;0.90;0.90;;;;;;;11.87;100.00;99273.91;5031318;28;20206;-66
2023/03/22 07:56:46;;;;;;;0.40;0.40;;;;;;;11.93;100.00;99272.84;5034434;28;20202;-67
2023/03/22 07:59:15;;;;;;;0.40;0.40;;;;;;;11.98;100.00;99281.22;5034749;28;21596;-67
2023/03/22 08:01:42;;;;;;;0.40;0.40;;;;;;;12.03;100.00;99284.44;5034700;28;20200;-67
2023/03/22 08:04:09;;;;;;;0.40;0.40;;;;;;;12.10;100.00;99285.88;5030797;28;20211;-67
2023/03/22 08:06:36;;;;;;;0.67;0.67;;;;;;;12.17;100.00;99287.34;5034251;28;20296;-67
2023/03/22 08:09:04;;;;;;;0.70;0.70;;;;;;;12.22;100.00;99294.84;5038557;28;20201;-67
2023/03/22 08:11:30;;;;;;;0.70;0.70;;;;;;;12.16;100.00;99290.78;5031198;28;20217;-67
2023/03/22 08:13:57;;;;;;;0.60;0.60;;;;;;;12.25;100.00;99297.28;5029424;28;20206;-68
2023/03/22 08:16:26;;;;;;;0.50;0.50;;;;;;;12.31;100.00;99284.22;5035888;28;20670;-68
2023/03/22 08:18:52;;;;;;;0.50;0.50;;;;;;;12.34;100.00;99287.50;5038511;28;20211;-67
2023/03/22 08:21:19;;;;;;;0.57;0.57;;;;;;;12.38;100.00;99291.63;5016193;28;20213;-68
2023/03/22 08:23:46;;;;;;;0.70;0.70;;;;;;;12.37;100.00;99292.53;5021817;28;20201;-68
2023/03/22 08:26:13;;;;;;;1.20;1.20;;;;;;;12.43;100.00;99296.59;5035264;28;20210;-68
2023/03/22 08:28:40;;;;;;;0.60;0.60;;;;;;;12.49;100.00;99297.19;5028671;28;20600;-68
2023/03/22 08:31:11;;;;;;;1.10;1.10;;;;;;;12.56;100.00;99297.78;5032732;28;20228;-67
2023/03/22 08:33:40;;;;;;;0.50;0.50;;;;;;;12.60;100.00;99305.31;5031997;28;20319;-68
2023/03/22 08:36:08;;;;;;;0.70;0.70;;;;;;;12.63;100.00;99315.47;5037422;28;20208;-69
2023/03/22 08:38:35;;;;;;;0.50;0.50;;;;;;;12.68;100.00;99306.75;5037721;28;20229;-68
2023/03/22 08:41:02;;;;;;;0.60;0.60;;;;;;;12.78;100.00;99303.75;5029004;28;20209;-67
2023/03/22 08:43:29;;;;;;;0.50;0.50;;;;;;;12.88;100.00;99304.22;5022126;28;20597;-68
2023/03/22 08:45:56;;;;;;;0.93;0.93;;;;;;;12.90;100.00;99304.97;5040055;28;20204;-67
2023/03/22 08:48:23;;;;;;;0.70;0.70;;;;;;;12.93;100.00;99304.84;5038990;28;20210;-66
2023/03/22 08:50:51;;;;;;;0.50;0.50;;;;;;;12.95;100.00;99297.91;5032527;28;20217;-68
2023/03/22 08:53:18;;;;;;;0.60;0.60;;;;;;;12.95;100.00;99303.06;5024259;28;20689;-65
2023/03/22 08:55:46;;;;;;;1.83;1.67;;;;;;;12.97;100.00;99307.25;5026546;28;20216;-65
2023/03/22 08:58:15;;;;;;;0.67;0.67;;;;;;;13.01;100.00;99303.66;5032569;28;20202;-66
2023/03/22 09:00:42;;;;;;;0.57;0.57;;;;;;;13.09;100.00;99305.91;5027415;28;20592;-67
2023/03/22 09:03:09;;;;;;;1.27;1.17;;;;;;;13.07;100.00;99292.25;5032596;28;20221;-67
2023/03/22 09:05:36;;;;;;;0.40;0.40;;;;;;;13.08;100.00;99299.06;5017950;28;20205;-67
2023/03/22 09:08:05;;;;;;;0.90;0.90;;;;;;;13.10;100.00;99292.16;5037304;28;20201;-67
2023/03/22 09:10:31;;;;;;;0.83;0.83;;;;;;;13.16;100.00;99297.03;5036619;28;20205;-66
2023/03/22 09:12:58;;;;;;;0.60;0.60;;;;;;;13.18;100.00;99290.09;5028342;28;20225;-67
2023/03/22 09:15:25;;;;;;;0.47;0.47;;;;;;;13.19;100.00;99294.31;5037745;28;20641;-67
2023/03/22 09:17:52;;;;;;;0.50;0.50;;;;;;;13.27;100.00;99296.59;5031489;28;20658;-67
2023/03/22 09:20:24;;;;;;;0.80;0.80;;;;;;;13.35;100.00;99292.78;5026915;28;20212;-66
2023/03/22 09:22:51;;;;;;;0.63;0.63;;;;;;;13.39;100.00;99294.31;5034550;28;20198;-67
2023/03/22 09:25:20;;;;;;;0.40;0.40;;;;;;;13.42;100.00;99295.91;5022511;28;20238;-67
2023/03/22 09:27:46;;;;;;;0.67;0.67;;;;;;;13.45;100.00;99299.19;5026000;28;20242;-66
2023/03/22 09:30:14;;;;;;;0.93;0.93;;;;;;;13.47;100.00;99307.69;5031082;28;20570;-67
2023/03/22 09:32:41;;;;;;;0.90;0.90;;;;;;;13.49;100.00;99303.31;5026483;28;20233;-67
2023/03/22 09:35:08;;;;;;;0.97;0.97;;;;;;;13.50;100.00;99305.00;5028122;28;20619;-67
2023/03/22 09:37:35;;;;;;;0.93;0.93;;;;;;;13.53;100.00;99307.44;5022745;28;20209;-67
2023/03/22 09:40:02;;;;;;;0.50;0.50;;;;;;;13.57;100.00;99301.22;5022402;28;20683;-66
2023/03/22 09:42:37;;;;;;;0.80;0.80;;;;;;;13.53;100.00;99304.88;5032682;28;20193;-67
2023/03/22 09:45:06;;;;;;;0.50;0.50;;;;;;;13.56;100.00;99299.59;5026840;28;20210;-66
2023/03/22 09:47:38;;;;;;;0.60;0.60;;;;;;;13.64;100.00;99302.66;5031112;28;20205;-66
2023/03/22 09:50:12;;;;;;;0.50;0.50;;;;;;;13.67;100.00;99293.94;5023341;28;20220;-67
2023/03/22 09:52:39;;;;;;;0.50;0.50;;;;;;;13.62;100.00;99290.75;5025818;28;20322;-66
2023/03/22 09:55:14;;;;;;;0.70;0.70;;;;;;;13.66;100.00;99281.97;5027929;28;20201;-67
2023/03/22 09:57:42;;;;;;;0.80;0.80;;;;;;;13.75;100.00;99289.28;5026461;28;20294;-67
2023/03/22 10:00:17;;;;;;;0.40;0.40;;;;;;;13.70;100.00;99285.25;5032215;28;20210;-66
2023/03/22 10:02:54;;;;;;;0.63;0.63;;;;;;;13.78;100.00;99280.59;5024852;28;20694;-67
2023/03/22 10:05:29;;;;;;;0.70;0.70;;;;;;;13.81;100.00;99291.59;5028109;28;20635;-67
2023/03/22 10:08:21;;;;;;;0.60;0.60;;;;;;;13.86;100.00;99293.97;5023241;28;20205;-67
2023/03/22 10:10:51;;;;;;;0.47;0.47;;;;;;;13.88;100.00;99284.44;5014755;28;20205;-67
2023/03/22 10:13:27;;;;;;;0.50;0.50;;;;;;;13.92;100.00;99293.69;5023816;28;20281;-67
2023/03/22 10:15:57;;;;;;;0.80;0.80;;;;;;;13.90;100.00;99286.03;5030302;28;20198;-67
2023/03/22 10:18:28;;;;;;;0.87;0.87;;;;;;;13.99;100.00;99285.59;5033646;28;22312;-66
2023/03/22 10:21:00;;;;;;;1.17;1.07;;;;;;;14.10;100.00;99287.69;5028275;28;20608;-67
2023/03/22 10:23:32;;;;;;;0.50;0.50;;;;;;;14.20;100.00;99283.78;5029912;28;20239;-66
2023/03/22 10:26:01;;;;;;;0.50;0.50;;;;;;;14.18;100.00;99288.19;5031125;28;20212;-66
2023/03/22 10:28:35;;;;;;;0.40;0.40;;;;;;;14.22;100.00;99287.13;5025447;28;20239;-67
2023/03/22 10:31:02;;;;;;;0.60;0.60;;;;;;;14.30;100.00;99276.44;5029838;28;20657;-67
2023/03/22 10:33:35;;;;;;;0.40;0.40;;;;;;;14.32;100.00;99285.78;5030728;28;20235;-67
2023/03/22 10:36:04;;;;;;;0.60;0.60;;;;;;;14.41;100.00;99287.94;5028671;28;20205;-67
2023/03/22 10:38:34;;;;;;;0.40;0.40;;;;;;;14.47;100.00;99277.38;5019305;28;20222;-67
2023/03/22 10:41:02;;;;;;;0.80;0.80;;;;;;;14.55;100.00;99270.09;5024535;28;20669;-67
2023/03/22 10:43:35;;;;;;;0.47;0.47;;;;;;;14.61;100.00;99274.94;5031435;28;20631;-67
2023/03/22 10:46:03;;;;;;;0.60;0.60;;;;;;;14.64;100.00;99279.94;5028666;28;20213;-66
2023/03/22 10:48:33;;;;;;;0.80;0.80;;;;;;;14.67;100.00;99279.81;5032554;28;20203;-67
2023/03/22 10:51:01;;;;;;;0.60;0.60;;;;;;;14.75;100.00;99276.00;5032858;28;20469;-69
2023/03/22 10:53:38;;;;;;;0.43;0.43;;;;;;;14.89;100.00;99279.59;5035133;28;20217;-68
2023/03/22 10:56:11;;;;;;;0.50;0.50;;;;;;;14.90;100.00;99275.25;5034309;28;20293;-68
2023/03/22 10:58:39;;;;;;;0.60;0.60;;;;;;;14.95;100.00;99274.13;5030786;28;20208;-68
2023/03/22 11:01:09;;;;;;;0.53;0.53;;;;;;;14.95;100.00;99268.97;5020198;28;20609;-68
2023/03/22 11:03:38;;;;;;;0.60;0.60;;;;;;;15.01;100.00;99267.81;5027715;28;20211;-69
2023/03/22 11:06:09;;;;;;;0.60;0.60;;;;;;;15.03;100.00;99271.16;5020130;28;20207;-68
2023/03/22 11:08:45;;;;;;;0.70;0.70;;;;;;;15.02;100.00;99260.00;5026884;28;20260;-68
2023/03/22 11:11:22;;;;;;;0.67;0.67;;;;;;;15.00;100.00;99272.16;5024314;28;20205;-67
2023/03/22 11:13:56;;;;;;;0.40;0.40;;;;;;;14.98;100.00;99263.66;5027127;28;20216;-68
2023/03/22 11:16:23;;;;;;;0.80;0.80;;;;;;;14.92;100.00;99261.38;5047678;28;20220;-68
2023/03/22 11:18:50;;;;;;;0.73;0.73;;;;;;;14.94;100.00;99261.28;5040219;28;20199;-68
2023/03/22 11:21:20;;;;;;;0.60;0.60;;;;;;;14.96;100.00;99246.56;5033512;28;20291;-68
2023/03/22 11:23:56;;;;;;;2.30;0.80;;;;;;;14.93;100.00;99250.13;5039211;28;20281;-68
2023/03/22 11:26:29;;;;;;;0.50;0.50;;;;;;;15.00;100.00;99259.22;5051580;28;20200;-68
2023/03/22 11:29:06;;;;;;;0.40;0.40;;;;;;;15.02;100.00;99261.75;5046455;28;20213;-67
2023/03/22 11:31:54;;;;;;;0.57;0.57;;;;;;;15.06;100.00;99261.50;5040844;28;20200;-67
2023/03/22 11:34:25;;;;;;;0.63;0.63;;;;;;;15.11;100.00;99258.69;5044074;28;20642;-66
2023/03/22 11:36:55;;;;;;;0.40;0.40;;;;;;;15.11;100.00;99253.53;5047903;28;20250;-67